Pleasant Home, Alabama
Current Conditions -  °F | °C
As of 11:56 AM on Thursday 30 Oct 2014 (Local Time) from K79J Reporting Station
Clear Clear  
Wind Chill: 73°   Ceiling: Unl
Heat Index: 73°   Visibility: 10mi
Dew Point: 40°   Wind: 9mph
Humidity: 30%   Direction: 70°ENE
Pressure: 30.07"   Gusts: 16mph
Location:  31.1836°N, 86.5372°W
Report Text: K79J 301656Z AUTO 07008G14KT 10SM CLR 23/04 A3007 RMK AO2 SLP178 T02280044
Loading
Personal Weather Stations






























Interactive Weather Map
Tropical Storm Tracking
New forecast layout! Learn more

10-Day Weather Forecast

Advertisements
Track Severe Weather on mobile